METAR Data
IDs: Format: Raw Decoded Include TAF

Data at: 1309 UTC 26 Feb 2021

ETWM 261220Z AUTO 30006KT //// // ////// 10/01 Q1033 ///